This is the latest recevied weather packets stored in our database for station/object R2AKT-13. If no packets are shown the sender has not sent any weather packets the latest 10 day(s).
| Time | Temp. | Humidity | Pressure | Rain* | Wind** | Luminosity | Snow |
|---|---|---|---|---|---|---|---|
| 1777605489 | 1.67° C | 63% | 996.7 hPa | - | 1.79 m/s, 173° | - | - |
| 1777604909 | 1.67° C | 64% | 996.7 hPa | - | 1.34 m/s, 170° | - | - |
| 1777604339 | 1.67° C | 63% | 996.8 hPa | - | 1.34 m/s, 173° | - | - |
| 1777603749 | 2.22° C | 62% | 996.7 hPa | - | 0.45 m/s, 184° | - | - |
| 1777603187 | 2.22° C | 62% | 996.8 hPa | - | 0 m/s | - | - |
| 1777602664 | 2.22° C | 60% | 996.7 hPa | - | 0 m/s | - | - |
| 1777602154 | 2.22° C | 59% | 996.7 hPa | - | 0 m/s | - | - |
| 1777601554 | 2.78° C | 60% | 996.8 hPa | - | 0 m/s | - | - |
| 1777600984 | 1.11° C | 63% | 996.8 hPa | - | 0 m/s | - | - |
| 1777600444 | 1.67° C | 63% | 996.8 hPa | - | 0 m/s | - | - |
| 1777599884 | 2.22° C | 61% | 996.7 hPa | - | 0 m/s | - | - |
| 1777599364 | 2.22° C | 61% | 996.7 hPa | - | 0 m/s | - | - |
| 1777598784 | 1.67° C | 63% | 996.7 hPa | - | 0 m/s | - | - |
| 1777598254 | 2.78° C | 59% | 996.7 hPa | - | 0 m/s | - | - |
| 1777597674 | 2.78° C | 59% | 996.6 hPa | - | 0 m/s | - | - |
| 1777597094 | 2.22° C | 60% | 996.6 hPa | - | 0 m/s | - | - |
| 1777596519 | 2.22° C | 59% | 996.7 hPa | - | 0 m/s | - | - |
| 1777595969 | 1.11° C | 61% | 996.8 hPa | - | 0 m/s | - | - |
| 1777595389 | 1.11° C | 61% | 996.8 hPa | - | 0 m/s | - | - |
| 1777594899 | 1.11° C | 60% | 996.8 hPa | - | 0 m/s | - | - |
| 1777594384 | 1.67° C | 60% | 996.8 hPa | - | 0 m/s | - | - |
| 1777593874 | 1.11° C | 60% | 996.8 hPa | - | 0 m/s | - | - |
| 1777593289 | 1.67° C | 58% | 996.8 hPa | - | 0 m/s | - | - |
| 1777592809 | 1.67° C | 59% | 996.8 hPa | - | 0 m/s | - | - |
| 1777592239 | 1.67° C | 59% | 996.8 hPa | - | 0 m/s | - | - |
* Rain since midnight (hover to see other rain measurements)
** Current wind speed in m/s (hover to see current wind gust speed)